sensor_id;sensor_type;location;lat;lon;timestamp;pressure;altitude;pressure_sealevel;temperature;humidity
12594;BME280;6362;50.208;9.182;2023-05-23T00:02:22;99633.56;;;14.85;100.00
12594;BME280;6362;50.208;9.182;2023-05-23T00:04:47;99640.50;;;14.86;100.00
12594;BME280;6362;50.208;9.182;2023-05-23T00:07:13;99634.31;;;14.88;100.00
12594;BME280;6362;50.208;9.182;2023-05-23T00:09:39;99640.41;;;14.89;100.00
12594;BME280;6362;50.208;9.182;2023-05-23T00:12:04;99638.66;;;14.89;100.00
12594;BME280;6362;50.208;9.182;2023-05-23T00:14:31;99632.41;;;14.93;100.00
12594;BME280;6362;50.208;9.182;2023-05-23T00:16:58;99634.09;;;14.96;100.00
12594;BME280;6362;50.208;9.182;2023-05-23T00:19:24;99642.72;;;14.99;100.00
12594;BME280;6362;50.208;9.182;2023-05-23T00:21:50;99640.91;;;15.01;100.00
12594;BME280;6362;50.208;9.182;2023-05-23T00:24:18;99631.19;;;15.05;100.00
12594;BME280;6362;50.208;9.182;2023-05-23T00:26:45;99640.31;;;15.20;100.00
12594;BME280;6362;50.208;9.182;2023-05-23T00:29:11;99634.22;;;15.47;100.00
12594;BME280;6362;50.208;9.182;2023-05-23T00:31:43;99648.03;;;15.52;99.88
12594;BME280;6362;50.208;9.182;2023-05-23T00:34:12;99637.69;;;15.48;99.83
12594;BME280;6362;50.208;9.182;2023-05-23T00:36:38;99638.53;;;15.48;99.87
12594;BME280;6362;50.208;9.182;2023-05-23T00:39:06;99637.19;;;15.37;100.00
12594;BME280;6362;50.208;9.182;2023-05-23T00:41:32;99639.06;;;15.33;100.00
12594;BME280;6362;50.208;9.182;2023-05-23T00:43:58;99644.38;;;15.30;100.00
12594;BME280;6362;50.208;9.182;2023-05-23T00:46:25;99644.66;;;15.21;100.00
12594;BME280;6362;50.208;9.182;2023-05-23T00:48:51;99647.47;;;15.15;100.00
12594;BME280;6362;50.208;9.182;2023-05-23T00:51:17;99642.38;;;15.10;100.00
12594;BME280;6362;50.208;9.182;2023-05-23T00:53:43;99648.66;;;15.04;100.00
12594;BME280;6362;50.208;9.182;2023-05-23T00:56:09;99647.91;;;15.01;100.00
12594;BME280;6362;50.208;9.182;2023-05-23T00:58:36;99651.50;;;14.97;100.00
12594;BME280;6362;50.208;9.182;2023-05-23T01:01:02;99657.72;;;14.94;100.00
12594;BME280;6362;50.208;9.182;2023-05-23T01:03:27;99649.84;;;14.94;100.00
12594;BME280;6362;50.208;9.182;2023-05-23T01:05:55;99651.69;;;14.91;100.00
12594;BME280;6362;50.208;9.182;2023-05-23T01:08:20;99657.91;;;14.88;100.00
12594;BME280;6362;50.208;9.182;2023-05-23T01:10:46;99660.50;;;14.88;100.00
12594;BME280;6362;50.208;9.182;2023-05-23T01:13:38;99658.94;;;14.83;100.00
12594;BME280;6362;50.208;9.182;2023-05-23T01:16:11;99662.03;;;14.95;100.00
12594;BME280;6362;50.208;9.182;2023-05-23T01:18:43;99670.09;;;14.89;100.00
12594;BME280;6362;50.208;9.182;2023-05-23T01:21:17;99663.22;;;14.85;100.00
12594;BME280;6362;50.208;9.182;2023-05-23T01:27:07;99672.88;;;14.83;100.00
12594;BME280;6362;50.208;9.182;2023-05-23T01:29:41;99677.16;;;14.86;100.00
12594;BME280;6362;50.208;9.182;2023-05-23T01:32:10;99677.28;;;14.81;100.00
12594;BME280;6362;50.208;9.182;2023-05-23T01:34:37;99677.47;;;14.75;100.00
12594;BME280;6362;50.208;9.182;2023-05-23T01:37:08;99669.78;;;14.69;100.00
12594;BME280;6362;50.208;9.182;2023-05-23T01:39:35;99669.00;;;14.65;100.00
12594;BME280;6362;50.208;9.182;2023-05-23T01:42:01;99666.56;;;14.59;100.00
12594;BME280;6362;50.208;9.182;2023-05-23T01:44:26;99671.91;;;14.55;100.00
12594;BME280;6362;50.208;9.182;2023-05-23T01:46:52;99677.25;;;14.51;100.00
12594;BME280;6362;50.208;9.182;2023-05-23T01:49:18;99680.84;;;14.47;100.00
12594;BME280;6362;50.208;9.182;2023-05-23T01:51:46;99673.94;;;14.45;100.00
12594;BME280;6362;50.208;9.182;2023-05-23T01:54:13;99676.63;;;14.42;100.00
12594;BME280;6362;50.208;9.182;2023-05-23T01:56:41;99676.66;;;14.40;100.00
12594;BME280;6362;50.208;9.182;2023-05-23T01:59:07;99676.78;;;14.36;100.00
12594;BME280;6362;50.208;9.182;2023-05-23T02:01:33;99680.34;;;14.33;100.00
12594;BME280;6362;50.208;9.182;2023-05-23T02:03:59;99679.50;;;14.31;100.00
12594;BME280;6362;50.208;9.182;2023-05-23T02:06:24;99676.03;;;14.31;100.00
12594;BME280;6362;50.208;9.182;2023-05-23T02:08:50;99674.44;;;14.25;100.00
12594;BME280;6362;50.208;9.182;2023-05-23T02:11:15;99681.41;;;14.26;100.00
12594;BME280;6362;50.208;9.182;2023-05-23T02:13:40;99691.06;;;14.24;100.00
12594;BME280;6362;50.208;9.182;2023-05-23T02:16:06;99692.06;;;14.18;100.00
12594;BME280;6362;50.208;9.182;2023-05-23T02:18:32;99685.97;;;14.18;100.00
12594;BME280;6362;50.208;9.182;2023-05-23T02:20:57;99688.81;;;14.10;100.00
12594;BME280;6362;50.208;9.182;2023-05-23T02:23:23;99697.50;;;14.11;100.00
12594;BME280;6362;50.208;9.182;2023-05-23T02:25:48;99697.53;;;14.09;100.00
12594;BME280;6362;50.208;9.182;2023-05-23T02:28:14;99704.44;;;14.12;100.00
12594;BME280;6362;50.208;9.182;2023-05-23T02:30:39;99699.28;;;14.10;100.00
12594;BME280;6362;50.208;9.182;2023-05-23T02:33:05;99700.13;;;14.11;100.00
12594;BME280;6362;50.208;9.182;2023-05-23T02:35:31;99705.25;;;14.14;100.00
12594;BME280;6362;50.208;9.182;2023-05-23T02:37:57;99698.22;;;14.17;100.00
12594;BME280;6362;50.208;9.182;2023-05-23T02:40:22;99704.19;;;14.21;100.00
12594;BME280;6362;50.208;9.182;2023-05-23T02:42:48;99703.91;;;14.33;100.00
12594;BME280;6362;50.208;9.182;2023-05-23T02:45:15;99710.75;;;14.37;100.00
12594;BME280;6362;50.208;9.182;2023-05-23T02:47:40;99716.75;;;14.41;100.00
12594;BME280;6362;50.208;9.182;2023-05-23T02:50:06;99712.31;;;14.44;100.00
12594;BME280;6362;50.208;9.182;2023-05-23T02:52:32;99723.59;;;14.46;100.00
12594;BME280;6362;50.208;9.182;2023-05-23T02:54:57;99723.66;;;14.43;100.00
12594;BME280;6362;50.208;9.182;2023-05-23T02:57:23;99717.50;;;14.46;100.00
12594;BME280;6362;50.208;9.182;2023-05-23T02:59:48;99720.19;;;14.43;100.00
12594;BME280;6362;50.208;9.182;2023-05-23T03:02:13;99714.22;;;14.38;100.00
12594;BME280;6362;50.208;9.182;2023-05-23T03:04:39;99707.38;;;14.32;100.00
12594;BME280;6362;50.208;9.182;2023-05-23T03:07:04;99708.34;;;14.30;100.00
12594;BME280;6362;50.208;9.182;2023-05-23T03:09:30;99712.03;;;14.22;100.00
12594;BME280;6362;50.208;9.182;2023-05-23T03:11:56;99709.53;;;14.18;100.00
12594;BME280;6362;50.208;9.182;2023-05-23T03:14:21;99711.34;;;14.16;100.00
12594;BME280;6362;50.208;9.182;2023-05-23T03:16:47;99715.72;;;14.14;100.00
12594;BME280;6362;50.208;9.182;2023-05-23T03:19:12;99723.69;;;14.09;100.00
12594;BME280;6362;50.208;9.182;2023-05-23T03:21:37;99714.00;;;14.13;100.00
12594;BME280;6362;50.208;9.182;2023-05-23T03:24:03;99717.44;;;14.15;100.00
12594;BME280;6362;50.208;9.182;2023-05-23T03:26:28;99714.81;;;14.16;100.00
12594;BME280;6362;50.208;9.182;2023-05-23T03:28:54;99724.03;;;14.30;100.00
12594;BME280;6362;50.208;9.182;2023-05-23T03:31:20;99724.19;;;14.23;100.00
12594;BME280;6362;50.208;9.182;2023-05-23T03:33:45;99725.13;;;14.21;100.00
12594;BME280;6362;50.208;9.182;2023-05-23T03:36:11;99723.34;;;14.23;100.00
12594;BME280;6362;50.208;9.182;2023-05-23T03:38:36;99723.34;;;14.23;100.00
12594;BME280;6362;50.208;9.182;2023-05-23T03:41:01;99729.44;;;14.23;100.00
12594;BME280;6362;50.208;9.182;2023-05-23T03:43:27;99737.31;;;14.22;100.00
12594;BME280;6362;50.208;9.182;2023-05-23T03:45:52;99737.22;;;14.25;100.00
12594;BME280;6362;50.208;9.182;2023-05-23T03:48:18;99744.16;;;14.26;100.00
12594;BME280;6362;50.208;9.182;2023-05-23T03:50:43;99738.94;;;14.26;99.22
12594;BME280;6362;50.208;9.182;2023-05-23T03:53:09;99744.91;;;14.31;97.94
12594;BME280;6362;50.208;9.182;2023-05-23T03:55:34;99748.31;;;14.35;97.51
12594;BME280;6362;50.208;9.182;2023-05-23T03:58:00;99756.22;;;14.33;96.89
12594;BME280;6362;50.208;9.182;2023-05-23T04:00:25;99757.94;;;14.34;95.91
12594;BME280;6362;50.208;9.182;2023-05-23T04:02:51;99758.75;;;14.36;95.39
12594;BME280;6362;50.208;9.182;2023-05-23T04:05:17;99770.06;;;14.37;95.39
12594;BME280;6362;50.208;9.182;2023-05-23T04:07:43;99768.47;;;14.31;95.20
12594;BME280;6362;50.208;9.182;2023-05-23T04:10:09;99774.69;;;14.27;94.29
12594;BME280;6362;50.208;9.182;2023-05-23T04:12:35;99777.22;;;14.30;94.29
12594;BME280;6362;50.208;9.182;2023-05-23T04:15:01;99781.53;;;14.31;93.43
12594;BME280;6362;50.208;9.182;2023-05-23T04:17:27;99785.00;;;14.32;92.91
12594;BME280;6362;50.208;9.182;2023-05-23T04:19:54;99782.13;;;14.42;92.92
12594;BME280;6362;50.208;9.182;2023-05-23T04:22:20;99785.53;;;14.46;92.53
12594;BME280;6362;50.208;9.182;2023-05-23T04:24:45;99788.22;;;14.43;92.27
12594;BME280;6362;50.208;9.182;2023-05-23T04:27:11;99788.22;;;14.43;91.44
12594;BME280;6362;50.208;9.182;2023-05-23T04:29:38;99778.53;;;14.46;90.70
12594;BME280;6362;50.208;9.182;2023-05-23T04:32:04;99791.44;;;14.54;90.63
12594;BME280;6362;50.208;9.182;2023-05-23T04:34:30;99780.06;;;14.57;90.62
12594;BME280;6362;50.208;9.182;2023-05-23T04:37:01;99783.59;;;14.56;89.72
12594;BME280;6362;50.208;9.182;2023-05-23T04:39:27;99788.81;;;14.56;89.43
12594;BME280;6362;50.208;9.182;2023-05-23T04:41:54;99786.19;;;14.56;89.07
12594;BME280;6362;50.208;9.182;2023-05-23T04:44:21;99791.50;;;14.52;88.34
12594;BME280;6362;50.208;9.182;2023-05-23T04:46:46;99785.41;;;14.52;88.72
12594;BME280;6362;50.208;9.182;2023-05-23T04:49:12;99804.59;;;14.52;88.90
12594;BME280;6362;50.208;9.182;2023-05-23T04:51:38;99802.81;;;14.53;88.81
12594;BME280;6362;50.208;9.182;2023-05-23T04:54:04;99810.66;;;14.53;87.58
12594;BME280;6362;50.208;9.182;2023-05-23T04:56:29;99807.09;;;14.57;86.73
12594;BME280;6362;50.208;9.182;2023-05-23T04:58:55;99802.53;;;14.64;87.37
12594;BME280;6362;50.208;9.182;2023-05-23T05:01:21;99818.88;;;14.73;87.18
12594;BME280;6362;50.208;9.182;2023-05-23T05:03:50;99821.50;;;14.73;86.77
12594;BME280;6362;50.208;9.182;2023-05-23T05:06:16;99821.44;;;14.75;86.49
12594;BME280;6362;50.208;9.182;2023-05-23T05:08:42;99825.94;;;14.70;86.00
12594;BME280;6362;50.208;9.182;2023-05-23T05:11:08;99828.50;;;14.73;86.26
12594;BME280;6362;50.208;9.182;2023-05-23T05:13:34;99824.19;;;14.70;85.15
12594;BME280;6362;50.208;9.182;2023-05-23T05:15:59;99830.13;;;14.77;85.26
12594;BME280;6362;50.208;9.182;2023-05-23T05:18:25;99827.41;;;14.80;85.05
12594;BME280;6362;50.208;9.182;2023-05-23T05:20:51;99827.38;;;14.82;84.14
12594;BME280;6362;50.208;9.182;2023-05-23T05:23:17;99829.00;;;14.86;84.28
12594;BME280;6362;50.208;9.182;2023-05-23T05:25:42;99829.81;;;14.89;83.87
12594;BME280;6362;50.208;9.182;2023-05-23T05:28:08;99839.44;;;14.87;83.92
12594;BME280;6362;50.208;9.182;2023-05-23T05:30:33;99832.50;;;14.86;83.15
12594;BME280;6362;50.208;9.182;2023-05-23T05:33:03;99842.03;;;14.89;83.64
12594;BME280;6362;50.208;9.182;2023-05-23T05:35:33;99841.94;;;14.92;84.20
12594;BME280;6362;50.208;9.182;2023-05-23T05:37:59;99846.16;;;14.97;84.68
12594;BME280;6362;50.208;9.182;2023-05-23T05:40:25;99853.00;;;15.03;84.36
12594;BME280;6362;50.208;9.182;2023-05-23T05:42:50;99847.88;;;14.98;83.67
12594;BME280;6362;50.208;9.182;2023-05-23T05:45:16;99854.81;;;15.01;83.70
12594;BME280;6362;50.208;9.182;2023-05-23T05:47:42;99853.66;;;15.11;84.21
12594;BME280;6362;50.208;9.182;2023-05-23T05:50:08;99849.16;;;15.15;83.47
12594;BME280;6362;50.208;9.182;2023-05-23T05:52:35;99854.22;;;15.22;82.64
12594;BME280;6362;50.208;9.182;2023-05-23T05:55:08;99855.03;;;15.24;79.45
12594;BME280;6362;50.208;9.182;2023-05-23T05:57:38;99856.75;;;15.25;80.14
12594;BME280;6362;50.208;9.182;2023-05-23T06:02:40;99868.81;;;15.31;78.73
12594;BME280;6362;50.208;9.182;2023-05-23T06:05:07;99872.25;;;15.33;78.47
12594;BME280;6362;50.208;9.182;2023-05-23T06:07:33;99872.22;;;15.35;78.12
12594;BME280;6362;50.208;9.182;2023-05-23T06:10:00;99882.00;;;15.28;77.94
12594;BME280;6362;50.208;9.182;2023-05-23T06:12:25;99874.22;;;15.25;77.16
12594;BME280;6362;50.208;9.182;2023-05-23T06:14:50;99883.00;;;15.24;77.36
12594;BME280;6362;50.208;9.182;2023-05-23T06:17:16;99874.63;;;15.11;76.59
12594;BME280;6362;50.208;9.182;2023-05-23T06:19:41;99885.09;;;15.10;76.42
12594;BME280;6362;50.208;9.182;2023-05-23T06:22:07;99879.13;;;15.06;75.71
12594;BME280;6362;50.208;9.182;2023-05-23T06:24:32;99891.28;;;15.40;82.69
12594;BME280;6362;50.208;9.182;2023-05-23T06:26:57;99887.06;;;15.67;83.10
12594;BME280;6362;50.208;9.182;2023-05-23T06:29:23;99893.78;;;15.75;77.55
12594;BME280;6362;50.208;9.182;2023-05-23T06:31:49;99884.16;;;15.76;75.54
12594;BME280;6362;50.208;9.182;2023-05-23T06:34:15;99887.47;;;15.82;75.09
12594;BME280;6362;50.208;9.182;2023-05-23T06:36:40;99884.75;;;15.86;73.61
12594;BME280;6362;50.208;9.182;2023-05-23T06:39:07;99878.41;;;15.93;73.97
12594;BME280;6362;50.208;9.182;2023-05-23T06:41:34;99879.22;;;15.95;72.83
12594;BME280;6362;50.208;9.182;2023-05-23T06:44:00;99875.03;;;15.89;73.38
12594;BME280;6362;50.208;9.182;2023-05-23T06:46:25;99880.28;;;15.89;73.62
12594;BME280;6362;50.208;9.182;2023-05-23T06:48:51;99883.75;;;15.90;75.95
12594;BME280;6362;50.208;9.182;2023-05-23T06:51:16;99889.31;;;15.79;73.38
12594;BME280;6362;50.208;9.182;2023-05-23T06:53:41;99880.47;;;15.83;73.92
12594;BME280;6362;50.208;9.182;2023-05-23T06:56:07;99880.41;;;15.84;72.65
12594;BME280;6362;50.208;9.182;2023-05-23T06:58:32;99890.03;;;15.84;73.82
12594;BME280;6362;50.208;9.182;2023-05-23T07:00:58;99884.13;;;15.77;73.80
12594;BME280;6362;50.208;9.182;2023-05-23T07:03:23;99890.84;;;15.86;73.92
12594;BME280;6362;50.208;9.182;2023-05-23T07:05:48;99888.03;;;15.92;74.62
12594;BME280;6362;50.208;9.182;2023-05-23T07:08:14;99884.16;;;16.05;75.50
12594;BME280;6362;50.208;9.182;2023-05-23T07:10:39;99888.25;;;16.14;74.30
12594;BME280;6362;50.208;9.182;2023-05-23T07:13:07;99898.22;;;16.31;73.54
12594;BME280;6362;50.208;9.182;2023-05-23T07:15:33;99893.78;;;16.33;73.50
12594;BME280;6362;50.208;9.182;2023-05-23T07:17:58;99886.00;;;16.30;69.81
12594;BME280;6362;50.208;9.182;2023-05-23T07:20:24;99885.31;;;16.51;71.10
12594;BME280;6362;50.208;9.182;2023-05-23T07:22:49;99892.38;;;16.77;71.44
12594;BME280;6362;50.208;9.182;2023-05-23T07:25:16;99889.13;;;16.96;71.05
12594;BME280;6362;50.208;9.182;2023-05-23T07:27:41;99892.59;;;17.21;70.89
12594;BME280;6362;50.208;9.182;2023-05-23T07:30:07;99887.28;;;17.23;69.58
12594;BME280;6362;50.208;9.182;2023-05-23T07:32:34;99893.72;;;17.39;69.29
12594;BME280;6362;50.208;9.182;2023-05-23T07:35:00;99889.31;;;17.39;66.58
12594;BME280;6362;50.208;9.182;2023-05-23T07:37:25;99891.94;;;17.39;67.30
12594;BME280;6362;50.208;9.182;2023-05-23T07:39:52;99890.28;;;17.37;68.12
12594;BME280;6362;50.208;9.182;2023-05-23T07:42:17;99895.91;;;17.26;68.56
12594;BME280;6362;50.208;9.182;2023-05-23T07:44:43;99894.47;;;17.18;67.23
12594;BME280;6362;50.208;9.182;2023-05-23T07:47:08;99898.41;;;17.06;67.20
12594;BME280;6362;50.208;9.182;2023-05-23T07:49:33;99894.09;;;17.03;68.02
12594;BME280;6362;50.208;9.182;2023-05-23T07:52:00;99905.66;;;16.98;67.93
12594;BME280;6362;50.208;9.182;2023-05-23T07:54:25;99906.88;;;16.89;68.17
12594;BME280;6362;50.208;9.182;2023-05-23T07:56:52;99907.88;;;16.85;67.96
12594;BME280;6362;50.208;9.182;2023-05-23T07:59:18;99907.09;;;16.81;69.15
12594;BME280;6362;50.208;9.182;2023-05-23T08:01:43;99902.06;;;16.75;69.85
12594;BME280;6362;50.208;9.182;2023-05-23T08:04:09;99909.59;;;16.58;69.20
12594;BME280;6362;50.208;9.182;2023-05-23T08:06:34;99912.38;;;16.53;69.85
12594;BME280;6362;50.208;9.182;2023-05-23T08:09:02;99908.28;;;16.45;69.31
12594;BME280;6362;50.208;9.182;2023-05-23T08:11:27;99914.47;;;16.42;70.60
12594;BME280;6362;50.208;9.182;2023-05-23T08:13:54;99913.81;;;16.35;70.11
12594;BME280;6362;50.208;9.182;2023-05-23T08:16:20;99914.16;;;16.25;70.18
12594;BME280;6362;50.208;9.182;2023-05-23T08:18:45;99918.53;;;16.24;71.15
12594;BME280;6362;50.208;9.182;2023-05-23T08:21:11;99916.91;;;16.20;71.12
12594;BME280;6362;50.208;9.182;2023-05-23T08:23:36;99917.81;;;16.19;70.60
12594;BME280;6362;50.208;9.182;2023-05-23T08:26:02;99925.56;;;16.24;71.33
12594;BME280;6362;50.208;9.182;2023-05-23T08:28:27;99928.19;;;16.24;71.80
12594;BME280;6362;50.208;9.182;2023-05-23T08:30:53;99925.47;;;16.27;73.50
12594;BME280;6362;50.208;9.182;2023-05-23T08:33:18;99930.47;;;16.34;73.94
12594;BME280;6362;50.208;9.182;2023-05-23T08:35:44;99929.63;;;16.34;73.57
12594;BME280;6362;50.208;9.182;2023-05-23T08:38:09;99925.94;;;16.40;73.83
12594;BME280;6362;50.208;9.182;2023-05-23T08:40:35;99927.31;;;16.51;74.09
12594;BME280;6362;50.208;9.182;2023-05-23T08:43:01;99927.91;;;16.59;73.06
12594;BME280;6362;50.208;9.182;2023-05-23T08:45:26;99920.22;;;16.83;70.06
12594;BME280;6362;50.208;9.182;2023-05-23T08:47:54;99928.38;;;17.00;68.65
12594;BME280;6362;50.208;9.182;2023-05-23T08:50:20;99925.38;;;17.11;69.44
12594;BME280;6362;50.208;9.182;2023-05-23T08:52:56;99925.59;;;17.30;68.03
12594;BME280;6362;50.208;9.182;2023-05-23T08:55:24;99924.81;;;17.51;66.72
12594;BME280;6362;50.208;9.182;2023-05-23T08:57:53;99925.63;;;17.53;67.61
12594;BME280;6362;50.208;9.182;2023-05-23T09:00:19;99928.41;;;17.74;67.19
12594;BME280;6362;50.208;9.182;2023-05-23T09:02:45;99928.50;;;17.72;67.69
12594;BME280;6362;50.208;9.182;2023-05-23T09:05:11;99938.03;;;17.75;67.24
12594;BME280;6362;50.208;9.182;2023-05-23T09:07:38;99929.34;;;17.73;66.77
12594;BME280;6362;50.208;9.182;2023-05-23T09:10:08;99938.38;;;17.89;66.77
12594;BME280;6362;50.208;9.182;2023-05-23T09:12:34;99928.88;;;18.08;66.61
12594;BME280;6362;50.208;9.182;2023-05-23T09:15:04;99938.50;;;18.31;65.89
12594;BME280;6362;50.208;9.182;2023-05-23T09:17:31;99930.75;;;18.50;65.44
12594;BME280;6362;50.208;9.182;2023-05-23T09:19:58;99931.88;;;18.65;63.59
12594;BME280;6362;50.208;9.182;2023-05-23T09:22:24;99936.16;;;18.69;65.93
12594;BME280;6362;50.208;9.182;2023-05-23T09:24:54;99932.88;;;18.62;63.90
12594;BME280;6362;50.208;9.182;2023-05-23T09:27:21;99937.97;;;18.67;63.38
12594;BME280;6362;50.208;9.182;2023-05-23T09:29:47;99943.31;;;18.43;62.61
12594;BME280;6362;50.208;9.182;2023-05-23T09:32:14;99943.78;;;18.53;64.95
12594;BME280;6362;50.208;9.182;2023-05-23T09:35:00;99936.25;;;18.66;64.05
12594;BME280;6362;50.208;9.182;2023-05-23T09:40:09;99934.94;;;18.98;63.36
12594;BME280;6362;50.208;9.182;2023-05-23T09:42:41;99932.03;;;19.04;62.46
12594;BME280;6362;50.208;9.182;2023-05-23T09:45:07;99927.84;;;19.00;61.63
12594;BME280;6362;50.208;9.182;2023-05-23T09:47:33;99929.53;;;19.01;62.03
12594;BME280;6362;50.208;9.182;2023-05-23T09:49:58;99934.25;;;18.93;61.91
12594;BME280;6362;50.208;9.182;2023-05-23T09:52:24;99930.06;;;18.67;62.80
12594;BME280;6362;50.208;9.182;2023-05-23T09:54:50;99934.84;;;18.57;62.34
12594;BME280;6362;50.208;9.182;2023-05-23T09:57:15;99939.50;;;18.29;65.18
12594;BME280;6362;50.208;9.182;2023-05-23T09:59:49;99939.50;;;18.29;64.05
12594;BME280;6362;50.208;9.182;2023-05-23T10:02:47;99940.41;;;18.04;64.24
12594;BME280;6362;50.208;9.182;2023-05-23T10:05:05;99943.50;;;17.92;65.52
12594;BME280;6362;50.208;9.182;2023-05-23T10:07:34;99945.31;;;17.66;65.33
12594;BME280;6362;50.208;9.182;2023-05-23T10:10:02;99950.91;;;17.57;66.88
12594;BME280;6362;50.208;9.182;2023-05-23T10:15:02;99961.81;;;17.47;68.49
12594;BME280;6362;50.208;9.182;2023-05-23T10:20:09;99954.72;;;17.24;67.78
12594;BME280;6362;50.208;9.182;2023-05-23T10:22:37;99959.28;;;17.19;68.30
12594;BME280;6362;50.208;9.182;2023-05-23T10:25:04;99961.50;;;17.04;67.11
12594;BME280;6362;50.208;9.182;2023-05-23T10:27:32;99962.53;;;17.00;69.23
12594;BME280;6362;50.208;9.182;2023-05-23T10:29:58;99959.78;;;17.03;68.46
12594;BME280;6362;50.208;9.182;2023-05-23T10:32:25;99960.56;;;17.07;69.13
12594;BME280;6362;50.208;9.182;2023-05-23T10:37:26;99968.84;;;16.95;68.03
12594;BME280;6362;50.208;9.182;2023-05-23T10:40:00;99973.97;;;16.99;67.79
12594;BME280;6362;50.208;9.182;2023-05-23T10:45:23;99973.53;;;17.36;68.60
12594;BME280;6362;50.208;9.182;2023-05-23T10:47:50;99964.06;;;17.57;67.44
12594;BME280;6362;50.208;9.182;2023-05-23T10:50:35;99972.59;;;17.89;66.82
12594;BME280;6362;50.208;9.182;2023-05-23T10:53:05;99967.63;;;18.05;66.90
12594;BME280;6362;50.208;9.182;2023-05-23T10:55:34;99970.88;;;18.11;65.11
12594;BME280;6362;50.208;9.182;2023-05-23T10:58:18;99970.75;;;17.91;64.05
12594;BME280;6362;50.208;9.182;2023-05-23T11:00:52;99970.97;;;17.85;64.89
12594;BME280;6362;50.208;9.182;2023-05-23T11:03:18;99974.84;;;17.75;64.90
12594;BME280;6362;50.208;9.182;2023-05-23T11:05:51;99975.50;;;17.56;65.18
12594;BME280;6362;50.208;9.182;2023-05-23T11:08:18;99985.78;;;17.37;66.07
12594;BME280;6362;50.208;9.182;2023-05-23T11:11:00;99974.63;;;17.31;67.19
12594;BME280;6362;50.208;9.182;2023-05-23T11:16:31;99977.75;;;17.15;67.53
12594;BME280;6362;50.208;9.182;2023-05-23T11:21:55;99982.22;;;17.13;67.88
12594;BME280;6362;50.208;9.182;2023-05-23T11:24:22;99982.72;;;17.25;67.89
12594;BME280;6362;50.208;9.182;2023-05-23T11:26:56;99986.69;;;17.36;67.30
12594;BME280;6362;50.208;9.182;2023-05-23T11:29:28;99991.25;;;17.31;67.72
12594;BME280;6362;50.208;9.182;2023-05-23T11:31:57;99990.09;;;17.40;66.47
12594;BME280;6362;50.208;9.182;2023-05-23T11:34:25;99983.81;;;17.44;67.09
12594;BME280;6362;50.208;9.182;2023-05-23T11:36:55;99993.78;;;17.34;66.22
12594;BME280;6362;50.208;9.182;2023-05-23T11:39:21;99996.47;;;17.33;65.99
12594;BME280;6362;50.208;9.182;2023-05-23T11:42:02;100004.66;;;17.24;65.76
12594;BME280;6362;50.208;9.182;2023-05-23T11:44:28;100005.38;;;17.29;66.83
12594;BME280;6362;50.208;9.182;2023-05-23T11:47:04;100004.81;;;17.19;66.00
12594;BME280;6362;50.208;9.182;2023-05-23T11:49:33;100003.53;;;17.31;67.26
12594;BME280;6362;50.208;9.182;2023-05-23T11:52:01;100009.34;;;17.14;65.05
12594;BME280;6362;50.208;9.182;2023-05-23T11:54:27;100007.38;;;17.21;65.32
12594;BME280;6362;50.208;9.182;2023-05-23T11:56:53;100010.06;;;17.19;65.29
12594;BME280;6362;50.208;9.182;2023-05-23T11:59:23;100010.91;;;17.20;64.93
12594;BME280;6362;50.208;9.182;2023-05-23T12:01:50;100007.06;;;17.30;65.18
12594;BME280;6362;50.208;9.182;2023-05-23T12:04:16;100009.56;;;17.34;64.69
12594;BME280;6362;50.208;9.182;2023-05-23T12:06:41;100014.81;;;17.34;64.62
12594;BME280;6362;50.208;9.182;2023-05-23T12:09:10;100011.69;;;17.48;64.51
12594;BME280;6362;50.208;9.182;2023-05-23T12:11:35;100016.81;;;17.53;63.65
12594;BME280;6362;50.208;9.182;2023-05-23T12:14:01;100006.91;;;17.61;62.55
12594;BME280;6362;50.208;9.182;2023-05-23T12:16:31;100006.47;;;17.73;61.89
12594;BME280;6362;50.208;9.182;2023-05-23T12:18:58;100005.09;;;17.88;61.52
12594;BME280;6362;50.208;9.182;2023-05-23T12:21:24;100013.22;;;17.80;61.30
12594;BME280;6362;50.208;9.182;2023-05-23T12:23:50;100000.09;;;17.80;60.63
12594;BME280;6362;50.208;9.182;2023-05-23T12:26:16;100009.41;;;17.64;60.86
12594;BME280;6362;50.208;9.182;2023-05-23T12:28:43;100013.66;;;17.68;62.11
12594;BME280;6362;50.208;9.182;2023-05-23T12:31:21;100011.53;;;17.79;62.37
12594;BME280;6362;50.208;9.182;2023-05-23T12:33:47;100017.66;;;18.03;62.51
12594;BME280;6362;50.208;9.182;2023-05-23T12:36:14;100010.69;;;18.26;62.50
12594;BME280;6362;50.208;9.182;2023-05-23T12:38:41;100021.66;;;18.37;59.84
12594;BME280;6362;50.208;9.182;2023-05-23T12:41:20;100015.81;;;18.52;58.77
12594;BME280;6362;50.208;9.182;2023-05-23T12:43:51;100016.91;;;18.70;59.25
12594;BME280;6362;50.208;9.182;2023-05-23T12:46:18;100016.09;;;19.12;58.47
12594;BME280;6362;50.208;9.182;2023-05-23T12:48:43;100028.72;;;19.46;58.09
12594;BME280;6362;50.208;9.182;2023-05-23T12:51:08;100020.38;;;19.77;56.89
12594;BME280;6362;50.208;9.182;2023-05-23T12:53:34;100017.97;;;19.91;57.03
12594;BME280;6362;50.208;9.182;2023-05-23T12:56:00;100014.13;;;19.98;56.00
12594;BME280;6362;50.208;9.182;2023-05-23T12:58:26;100016.50;;;20.04;54.27
12594;BME280;6362;50.208;9.182;2023-05-23T13:00:51;100021.16;;;19.99;55.64
12594;BME280;6362;50.208;9.182;2023-05-23T13:03:17;100013.97;;;19.62;55.32
12594;BME280;6362;50.208;9.182;2023-05-23T13:05:42;100026.97;;;19.24;55.93
12594;BME280;6362;50.208;9.182;2023-05-23T13:08:08;100031.84;;;19.13;58.00
12594;BME280;6362;50.208;9.182;2023-05-23T13:10:33;100022.78;;;18.98;56.66
12594;BME280;6362;50.208;9.182;2023-05-23T13:12:59;100031.50;;;18.79;59.00
12594;BME280;6362;50.208;9.182;2023-05-23T13:15:24;100030.28;;;18.64;59.22
12594;BME280;6362;50.208;9.182;2023-05-23T13:17:50;100032.78;;;18.45;59.17
12594;BME280;6362;50.208;9.182;2023-05-23T13:20:15;100029.56;;;18.37;59.54
12594;BME280;6362;50.208;9.182;2023-05-23T13:22:40;100033.28;;;18.31;59.98
12594;BME280;6362;50.208;9.182;2023-05-23T13:25:07;100026.59;;;18.23;61.16
12594;BME280;6362;50.208;9.182;2023-05-23T13:27:33;100036.44;;;18.17;60.46
12594;BME280;6362;50.208;9.182;2023-05-23T13:29:58;100039.34;;;18.10;60.82
12594;BME280;6362;50.208;9.182;2023-05-23T13:32:24;100033.34;;;18.06;61.25